SAS505 EGLL-LEMD
Flight info
| Callsign | SAS505 |
|---|---|
| Flight time | 1h 47m |
| Altitude | 39000 |
| Route | GASGU N866 SAM M195 IBNID/N0478F330 M195 MARUK N621 LELNA DCT NOVAN DCT DELOG N864 NONTU |
| Aircraft | A359/H-SDE2E3GHIJ3J4J5LM1ORWXY/LB1D1 |
Departure
| Time | 2026-05-05 16:19 |
|---|---|
| Airport | London Heathrow Airport (EGLL) |
Arrival
| Time | 2026-05-05 18:06 |
|---|---|
| Airport | Adolfo Suárez Madrid–Barajas Airport (LEMD) |
| Time | Latitude | Longitude | Altitude | Speed | Heading |
|---|---|---|---|---|---|
| 2026-05-05 15:53 | 51.46839 | -0.44881 | 94 ft | 0 kts | 360° |
| 2026-05-05 16:04 | 51.46829 | -0.44881 | 94 ft | 4 kts | 353° |
| 2026-05-05 16:04 | 51.46804 | -0.44868 | 93 ft | 4 kts | 328° |
| 2026-05-05 16:04 | 51.46784 | -0.44851 | 94 ft | 3 kts | 341° |
| 2026-05-05 16:05 | 51.46762 | -0.44832 | 93 ft | 4 kts | 306° |
| 2026-05-05 16:05 | 51.46753 | -0.44794 | 93 ft | 4 kts | 271° |
| 2026-05-05 16:05 | 51.46752 | -0.44767 | 92 ft | 1 kts | 270° |
| 2026-05-05 16:05 | 51.46752 | -0.44764 | 92 ft | 0 kts | 270° |
| 2026-05-05 16:08 | 51.46752 | -0.44796 | 93 ft | 12 kts | 269° |
| 2026-05-05 16:08 | 51.46751 | -0.44963 | 92 ft | 17 kts | 270° |
| 2026-05-05 16:09 | 51.46751 | -0.45166 | 94 ft | 20 kts | 269° |
| 2026-05-05 16:09 | 51.46749 | -0.45400 | 94 ft | 22 kts | 269° |
| 2026-05-05 16:09 | 51.46749 | -0.45663 | 92 ft | 25 kts | 270° |
| 2026-05-05 16:09 | 51.46749 | -0.45945 | 95 ft | 27 kts | 269° |
| 2026-05-05 16:10 | 51.46748 | -0.46251 | 96 ft | 28 kts | 270° |
| 2026-05-05 16:10 | 51.46748 | -0.46576 | 96 ft | 30 kts | 269° |
| 2026-05-05 16:10 | 51.46747 | -0.46855 | 96 ft | 18 kts | 270° |
| 2026-05-05 16:10 | 51.46747 | -0.47067 | 96 ft | 20 kts | 270° |
| 2026-05-05 16:11 | 51.46746 | -0.47307 | 96 ft | 23 kts | 269° |
| 2026-05-05 16:11 | 51.46743 | -0.48072 | 92 ft | 11 kts | 269° |
| 2026-05-05 16:12 | 51.46742 | -0.48094 | 92 ft | 0 kts | 269° |
| 2026-05-05 16:12 | 51.46741 | -0.48164 | 94 ft | 10 kts | 265° |
| 2026-05-05 16:13 | 51.46630 | -0.48211 | 96 ft | 0 kts | 180° |
| 2026-05-05 16:17 | 51.46611 | -0.48212 | 93 ft | 12 kts | 180° |
| 2026-05-05 16:17 | 51.46521 | -0.48206 | 98 ft | 13 kts | 166° |
| 2026-05-05 16:18 | 51.46481 | -0.48027 | 93 ft | 0 kts | 90° |
| 2026-05-05 16:18 | 51.46481 | -0.47895 | 93 ft | 42 kts | 90° |
| 2026-05-05 16:18 | 51.46494 | -0.45383 | 209 ft | 168 kts | 88° |
| 2026-05-05 16:19 | 51.46481 | -0.43405 | 851 ft | 177 kts | 92° |
| 2026-05-05 16:19 | 51.46137 | -0.41500 | 1746 ft | 186 kts | 112° |
| 2026-05-05 16:19 | 51.44166 | -0.37854 | 2586 ft | 251 kts | 149° |
| 2026-05-05 16:20 | 51.40645 | -0.37250 | 4326 ft | 268 kts | 193° |
| 2026-05-05 16:20 | 51.37030 | -0.39044 | 6179 ft | 278 kts | 198° |
| 2026-05-05 16:21 | 51.33524 | -0.41753 | 8188 ft | 282 kts | 214° |
| 2026-05-05 16:22 | 51.29607 | -0.48920 | 10646 ft | 310 kts | 246° |
| 2026-05-05 16:22 | 51.28187 | -0.55976 | 11517 ft | 351 kts | 253° |
| 2026-05-05 16:23 | 51.26758 | -0.63627 | 13126 ft | 366 kts | 252° |
| 2026-05-05 16:23 | 51.26008 | -0.67552 | 13904 ft | 373 kts | 252° |
| 2026-05-05 16:23 | 51.24487 | -0.75487 | 15557 ft | 377 kts | 252° |
| 2026-05-05 16:24 | 51.23714 | -0.79499 | 16352 ft | 381 kts | 251° |
| 2026-05-05 16:24 | 51.22924 | -0.83579 | 16807 ft | 385 kts | 251° |
| 2026-05-05 16:24 | 51.21320 | -0.91752 | 16942 ft | 387 kts | 250° |
| 2026-05-05 16:25 | 51.20203 | -0.95643 | 16942 ft | 386 kts | 238° |
| 2026-05-05 16:25 | 51.16745 | -1.02196 | 16941 ft | 387 kts | 225° |
| 2026-05-05 16:25 | 51.14827 | -1.05214 | 16944 ft | 387 kts | 224° |
| 2026-05-05 16:26 | 51.10939 | -1.11088 | 16939 ft | 387 kts | 223° |
| 2026-05-05 16:26 | 51.07025 | -1.16988 | 16937 ft | 387 kts | 224° |
| 2026-05-05 16:27 | 51.05072 | -1.19953 | 16965 ft | 387 kts | 224° |
| 2026-05-05 16:27 | 51.03118 | -1.22930 | 17405 ft | 390 kts | 224° |
| 2026-05-05 16:27 | 51.01154 | -1.25926 | 18260 ft | 391 kts | 224° |
| 2026-05-05 16:27 | 50.99208 | -1.28894 | 19053 ft | 394 kts | 224° |
| 2026-05-05 16:28 | 50.97228 | -1.31901 | 19870 ft | 396 kts | 224° |
| 2026-05-05 16:28 | 50.95106 | -1.34712 | 20662 ft | 399 kts | 217° |
| 2026-05-05 16:28 | 50.92845 | -1.37298 | 21469 ft | 401 kts | 216° |
| 2026-05-05 16:28 | 50.90525 | -1.39809 | 22267 ft | 405 kts | 214° |
| 2026-05-05 16:29 | 50.88159 | -1.42284 | 23057 ft | 407 kts | 214° |
| 2026-05-05 16:29 | 50.85784 | -1.44730 | 23840 ft | 409 kts | 214° |
| 2026-05-05 16:29 | 50.83380 | -1.47199 | 24352 ft | 415 kts | 214° |
| 2026-05-05 16:29 | 50.80944 | -1.49702 | 24987 ft | 417 kts | 213° |
| 2026-05-05 16:30 | 50.78509 | -1.52209 | 25762 ft | 416 kts | 213° |
| 2026-05-05 16:30 | 50.76106 | -1.54688 | 26405 ft | 420 kts | 213° |
| 2026-05-05 16:30 | 50.73642 | -1.57232 | 26945 ft | 425 kts | 213° |
| 2026-05-05 16:30 | 50.71160 | -1.59794 | 27598 ft | 427 kts | 213° |
| 2026-05-05 16:31 | 50.68658 | -1.62374 | 28206 ft | 430 kts | 213° |
| 2026-05-05 16:31 | 50.66138 | -1.64969 | 28757 ft | 434 kts | 213° |
| 2026-05-05 16:31 | 50.63600 | -1.67580 | 29349 ft | 437 kts | 212° |
| 2026-05-05 16:31 | 50.61043 | -1.70206 | 29814 ft | 442 kts | 212° |
| 2026-05-05 16:32 | 50.58457 | -1.72858 | 30286 ft | 445 kts | 212° |
| 2026-05-05 16:32 | 50.55843 | -1.75534 | 30724 ft | 448 kts | 212° |
| 2026-05-05 16:32 | 50.53214 | -1.78223 | 31111 ft | 452 kts | 212° |
| 2026-05-05 16:32 | 50.50601 | -1.80898 | 31513 ft | 456 kts | 212° |
| 2026-05-05 16:33 | 50.47933 | -1.83623 | 31887 ft | 459 kts | 212° |
| 2026-05-05 16:33 | 50.45239 | -1.86366 | 32257 ft | 463 kts | 213° |
| 2026-05-05 16:33 | 50.42524 | -1.89125 | 32640 ft | 465 kts | 213° |
| 2026-05-05 16:33 | 50.39800 | -1.91890 | 33001 ft | 469 kts | 213° |
| 2026-05-05 16:34 | 50.37034 | -1.94694 | 33195 ft | 475 kts | 213° |
| 2026-05-05 16:34 | 50.34254 | -1.97510 | 33547 ft | 477 kts | 213° |
| 2026-05-05 16:34 | 50.31487 | -2.00308 | 33888 ft | 479 kts | 213° |
| 2026-05-05 16:34 | 50.28654 | -2.03093 | 34255 ft | 479 kts | 210° |
| 2026-05-05 16:35 | 50.25675 | -2.05396 | 34700 ft | 477 kts | 202° |
| 2026-05-05 16:35 | 50.22524 | -2.07045 | 35023 ft | 479 kts | 194° |
| 2026-05-05 16:35 | 50.19244 | -2.07959 | 35371 ft | 479 kts | 187° |
| 2026-05-05 16:35 | 50.15936 | -2.08530 | 35723 ft | 479 kts | 185° |
| 2026-05-05 16:36 | 50.12596 | -2.08976 | 35952 ft | 482 kts | 184° |
| 2026-05-05 16:36 | 50.09283 | -2.09362 | 36260 ft | 482 kts | 184° |
| 2026-05-05 16:36 | 50.05945 | -2.09741 | 36666 ft | 480 kts | 184° |
| 2026-05-05 16:36 | 50.02603 | -2.10129 | 36978 ft | 481 kts | 184° |
| 2026-05-05 16:37 | 49.99274 | -2.10670 | 37251 ft | 482 kts | 189° |
| 2026-05-05 16:37 | 49.96004 | -2.11783 | 37603 ft | 481 kts | 194° |
| 2026-05-05 16:37 | 49.92763 | -2.13159 | 37887 ft | 482 kts | 195° |
| 2026-05-05 16:37 | 49.89532 | -2.14629 | 38082 ft | 485 kts | 196° |
| 2026-05-05 16:38 | 49.86301 | -2.16149 | 38382 ft | 485 kts | 196° |
| 2026-05-05 16:38 | 49.83075 | -2.17681 | 38666 ft | 485 kts | 197° |
| 2026-05-05 16:38 | 49.79887 | -2.19192 | 38855 ft | 486 kts | 197° |
| 2026-05-05 16:38 | 49.76637 | -2.20723 | 38946 ft | 486 kts | 196° |
| 2026-05-05 16:39 | 49.70165 | -2.23743 | 38965 ft | 486 kts | 197° |
| 2026-05-05 16:39 | 49.63673 | -2.26749 | 38965 ft | 487 kts | 196° |
| 2026-05-05 16:40 | 49.57190 | -2.29739 | 38957 ft | 485 kts | 196° |
| 2026-05-05 16:40 | 49.50755 | -2.32699 | 38956 ft | 485 kts | 196° |
| 2026-05-05 16:41 | 49.44269 | -2.35675 | 38955 ft | 488 kts | 196° |
| 2026-05-05 16:41 | 49.37749 | -2.38660 | 38954 ft | 489 kts | 196° |
| 2026-05-05 16:42 | 49.31225 | -2.41637 | 38964 ft | 489 kts | 196° |
| 2026-05-05 16:42 | 49.24692 | -2.44610 | 38950 ft | 489 kts | 196° |
| 2026-05-05 16:43 | 49.18197 | -2.47558 | 38935 ft | 489 kts | 196° |
| 2026-05-05 16:43 | 49.11661 | -2.50517 | 38938 ft | 489 kts | 196° |
| 2026-05-05 16:44 | 49.05125 | -2.53467 | 38950 ft | 489 kts | 196° |
| 2026-05-05 16:44 | 48.98607 | -2.56402 | 38940 ft | 487 kts | 196° |
| 2026-05-05 16:45 | 48.92101 | -2.59322 | 38940 ft | 487 kts | 196° |
| 2026-05-05 16:45 | 48.85637 | -2.62216 | 38939 ft | 487 kts | 196° |
| 2026-05-05 16:46 | 48.79116 | -2.65128 | 38950 ft | 489 kts | 196° |
| 2026-05-05 16:46 | 48.72572 | -2.68042 | 38946 ft | 490 kts | 196° |
| 2026-05-05 16:47 | 48.66031 | -2.70947 | 38948 ft | 490 kts | 196° |
| 2026-05-05 16:47 | 48.59483 | -2.73847 | 38952 ft | 490 kts | 196° |
| 2026-05-05 16:48 | 48.52949 | -2.76733 | 38962 ft | 489 kts | 196° |
| 2026-05-05 16:48 | 48.46421 | -2.79609 | 38952 ft | 489 kts | 196° |
| 2026-05-05 16:49 | 48.39888 | -2.82479 | 38953 ft | 489 kts | 196° |
| 2026-05-05 16:49 | 48.33352 | -2.85344 | 38948 ft | 488 kts | 196° |
| 2026-05-05 16:50 | 48.26879 | -2.88172 | 38950 ft | 487 kts | 196° |
| 2026-05-05 16:50 | 48.20370 | -2.91009 | 38957 ft | 487 kts | 196° |
| 2026-05-05 16:51 | 48.13859 | -2.93840 | 38957 ft | 487 kts | 195° |
| 2026-05-05 16:51 | 48.07355 | -2.96659 | 38955 ft | 486 kts | 196° |
| 2026-05-05 16:52 | 48.00846 | -2.99473 | 38954 ft | 488 kts | 196° |
| 2026-05-05 16:52 | 47.94338 | -3.02280 | 38956 ft | 490 kts | 196° |
| 2026-05-05 16:53 | 47.87789 | -3.05097 | 38959 ft | 489 kts | 196° |
| 2026-05-05 16:53 | 47.81247 | -3.07904 | 38956 ft | 489 kts | 196° |
| 2026-05-05 16:54 | 47.74704 | -3.10703 | 38961 ft | 489 kts | 196° |
| 2026-05-05 16:54 | 47.68208 | -3.13476 | 38961 ft | 488 kts | 196° |
| 2026-05-05 16:55 | 47.61683 | -3.16253 | 38958 ft | 488 kts | 196° |
| 2026-05-05 16:55 | 47.55158 | -3.19023 | 38953 ft | 488 kts | 195° |
| 2026-05-05 16:56 | 47.48626 | -3.21789 | 38948 ft | 488 kts | 196° |
| 2026-05-05 16:56 | 47.42077 | -3.24556 | 38944 ft | 489 kts | 195° |
| 2026-05-05 16:57 | 47.35575 | -3.27295 | 38936 ft | 488 kts | 196° |
| 2026-05-05 16:57 | 47.29039 | -3.30040 | 38939 ft | 489 kts | 196° |
| 2026-05-05 16:58 | 47.22465 | -3.32796 | 38935 ft | 490 kts | 196° |
| 2026-05-05 16:58 | 47.15942 | -3.35523 | 38934 ft | 491 kts | 196° |
| 2026-05-05 16:59 | 47.09365 | -3.38265 | 38934 ft | 491 kts | 196° |
| 2026-05-05 16:59 | 47.02783 | -3.41002 | 38931 ft | 491 kts | 196° |
| 2026-05-05 17:00 | 46.96195 | -3.43734 | 38935 ft | 491 kts | 196° |
| 2026-05-05 17:00 | 46.89665 | -3.46436 | 38939 ft | 491 kts | 196° |
| 2026-05-05 17:01 | 46.83087 | -3.49152 | 38936 ft | 491 kts | 196° |
| 2026-05-05 17:01 | 46.76499 | -3.51864 | 38932 ft | 491 kts | 196° |
| 2026-05-05 17:02 | 46.71026 | -3.54112 | 38940 ft | 491 kts | 196° |
| 2026-05-05 17:02 | 46.63366 | -3.57250 | 38940 ft | 491 kts | 196° |
| 2026-05-05 17:03 | 46.57848 | -3.59505 | 38937 ft | 491 kts | 196° |
| 2026-05-05 17:03 | 46.51263 | -3.62190 | 38938 ft | 491 kts | 196° |
| 2026-05-05 17:04 | 46.44713 | -3.64853 | 38941 ft | 492 kts | 196° |
| 2026-05-05 17:04 | 46.38110 | -3.67531 | 38942 ft | 492 kts | 196° |
| 2026-05-05 17:05 | 46.31459 | -3.69886 | 38950 ft | 493 kts | 188° |
| 2026-05-05 17:05 | 46.24650 | -3.71112 | 38946 ft | 493 kts | 187° |
| 2026-05-05 17:06 | 46.17866 | -3.72114 | 38945 ft | 493 kts | 186° |
| 2026-05-05 17:06 | 46.11030 | -3.73095 | 38952 ft | 493 kts | 187° |
| 2026-05-05 17:07 | 46.04195 | -3.74095 | 38946 ft | 493 kts | 187° |
| 2026-05-05 17:07 | 45.97347 | -3.75108 | 38950 ft | 493 kts | 187° |
| 2026-05-05 17:08 | 45.90556 | -3.76113 | 38945 ft | 493 kts | 187° |
| 2026-05-05 17:08 | 45.83724 | -3.77120 | 38954 ft | 493 kts | 187° |
| 2026-05-05 17:09 | 45.76891 | -3.78126 | 38947 ft | 493 kts | 187° |
| 2026-05-05 17:09 | 45.70047 | -3.79130 | 38956 ft | 493 kts | 187° |
| 2026-05-05 17:10 | 45.63261 | -3.80122 | 38956 ft | 493 kts | 188° |
| 2026-05-05 17:10 | 45.56431 | -3.81121 | 38963 ft | 493 kts | 187° |
| 2026-05-05 17:11 | 45.49600 | -3.82115 | 38958 ft | 493 kts | 188° |
| 2026-05-05 17:11 | 45.42773 | -3.83107 | 38958 ft | 492 kts | 188° |
| 2026-05-05 17:12 | 45.35998 | -3.84090 | 38963 ft | 492 kts | 187° |
| 2026-05-05 17:12 | 45.29171 | -3.85076 | 38963 ft | 492 kts | 187° |
| 2026-05-05 17:13 | 45.22349 | -3.86061 | 38963 ft | 492 kts | 187° |
| 2026-05-05 17:13 | 45.15514 | -3.87044 | 38958 ft | 493 kts | 187° |
| 2026-05-05 17:14 | 45.08720 | -3.88020 | 38968 ft | 493 kts | 187° |
| 2026-05-05 17:14 | 45.01871 | -3.89001 | 38968 ft | 493 kts | 187° |
| 2026-05-05 17:15 | 44.95041 | -3.89976 | 38970 ft | 493 kts | 187° |
| 2026-05-05 17:15 | 44.88199 | -3.90951 | 38971 ft | 493 kts | 187° |
| 2026-05-05 17:16 | 44.81410 | -3.91917 | 38971 ft | 493 kts | 187° |
| 2026-05-05 17:16 | 44.74575 | -3.92886 | 38974 ft | 493 kts | 187° |
| 2026-05-05 17:17 | 44.67732 | -3.93854 | 38977 ft | 493 kts | 187° |
| 2026-05-05 17:17 | 44.60950 | -3.94812 | 38977 ft | 493 kts | 187° |
| 2026-05-05 17:18 | 44.54121 | -3.95773 | 38972 ft | 493 kts | 187° |
| 2026-05-05 17:18 | 44.47282 | -3.96734 | 38977 ft | 493 kts | 187° |
| 2026-05-05 17:19 | 44.40447 | -3.97692 | 38980 ft | 493 kts | 187° |
| 2026-05-05 17:19 | 44.33638 | -3.98539 | 38981 ft | 494 kts | 183° |
| 2026-05-05 17:20 | 44.26748 | -3.98196 | 38985 ft | 496 kts | 178° |
| 2026-05-05 17:20 | 44.19859 | -3.97532 | 38985 ft | 496 kts | 178° |
| 2026-05-05 17:21 | 44.12964 | -3.96820 | 38984 ft | 496 kts | 178° |
| 2026-05-05 17:22 | 44.02679 | -3.95796 | 38993 ft | 496 kts | 178° |
| 2026-05-05 17:22 | 43.95796 | -3.95127 | 38984 ft | 496 kts | 178° |
| 2026-05-05 17:23 | 43.88903 | -3.94460 | 38996 ft | 496 kts | 178° |
| 2026-05-05 17:23 | 43.82011 | -3.93795 | 39001 ft | 496 kts | 178° |
| 2026-05-05 17:24 | 43.75114 | -3.93129 | 38999 ft | 496 kts | 178° |
| 2026-05-05 17:24 | 43.68261 | -3.92470 | 39008 ft | 497 kts | 178° |
| 2026-05-05 17:25 | 43.61358 | -3.91808 | 39007 ft | 497 kts | 178° |
| 2026-05-05 17:25 | 43.54459 | -3.91147 | 39011 ft | 497 kts | 179° |
| 2026-05-05 17:26 | 43.47551 | -3.90494 | 39019 ft | 497 kts | 179° |
| 2026-05-05 17:26 | 43.40682 | -3.90872 | 39020 ft | 493 kts | 188° |
| 2026-05-05 17:27 | 43.33853 | -3.91824 | 39018 ft | 493 kts | 189° |
| 2026-05-05 17:27 | 43.27044 | -3.92869 | 39022 ft | 492 kts | 189° |
| 2026-05-05 17:28 | 43.20272 | -3.93897 | 39021 ft | 492 kts | 189° |
| 2026-05-05 17:28 | 43.13468 | -3.94907 | 39016 ft | 492 kts | 189° |
| 2026-05-05 17:29 | 43.06669 | -3.95905 | 39023 ft | 491 kts | 189° |
| 2026-05-05 17:29 | 42.99873 | -3.96901 | 39018 ft | 491 kts | 189° |
| 2026-05-05 17:30 | 42.93075 | -3.97897 | 39012 ft | 491 kts | 189° |
| 2026-05-05 17:30 | 42.86323 | -3.98884 | 39018 ft | 490 kts | 189° |
| 2026-05-05 17:31 | 42.79534 | -3.99873 | 39019 ft | 490 kts | 189° |
| 2026-05-05 17:31 | 42.72742 | -4.00861 | 39015 ft | 490 kts | 189° |
| 2026-05-05 17:32 | 42.65937 | -4.01848 | 39015 ft | 490 kts | 189° |
| 2026-05-05 17:32 | 42.59146 | -4.02831 | 39015 ft | 491 kts | 189° |
| 2026-05-05 17:33 | 42.52363 | -4.03815 | 39013 ft | 490 kts | 189° |
| 2026-05-05 17:33 | 42.45623 | -4.04785 | 39018 ft | 490 kts | 189° |
| 2026-05-05 17:34 | 42.38846 | -4.05758 | 39016 ft | 490 kts | 189° |
| 2026-05-05 17:34 | 42.32056 | -4.06732 | 39016 ft | 490 kts | 189° |
| 2026-05-05 17:35 | 42.25284 | -4.07701 | 39016 ft | 489 kts | 189° |
| 2026-05-05 17:35 | 42.18518 | -4.08668 | 39019 ft | 488 kts | 189° |
| 2026-05-05 17:36 | 42.11798 | -4.09623 | 38675 ft | 474 kts | 190° |
| 2026-05-05 17:36 | 42.08542 | -4.10080 | 37544 ft | 468 kts | 190° |
| 2026-05-05 17:36 | 42.05306 | -4.10538 | 36622 ft | 462 kts | 191° |
| 2026-05-05 17:36 | 42.02178 | -4.10979 | 36001 ft | 457 kts | 191° |
| 2026-05-05 17:37 | 41.98982 | -4.11385 | 35285 ft | 462 kts | 190° |
| 2026-05-05 17:37 | 41.96855 | -4.11623 | 34820 ft | 464 kts | 190° |
| 2026-05-05 17:37 | 41.92506 | -4.12105 | 33656 ft | 472 kts | 190° |
| 2026-05-05 17:37 | 41.89225 | -4.12472 | 32730 ft | 475 kts | 191° |
| 2026-05-05 17:38 | 41.85925 | -4.12843 | 31882 ft | 477 kts | 191° |
| 2026-05-05 17:38 | 41.82602 | -4.13218 | 30959 ft | 480 kts | 191° |
| 2026-05-05 17:38 | 41.79257 | -4.13598 | 30000 ft | 485 kts | 191° |
| 2026-05-05 17:38 | 41.75896 | -4.13979 | 29206 ft | 482 kts | 191° |
| 2026-05-05 17:39 | 41.72609 | -4.14348 | 28583 ft | 477 kts | 191° |
| 2026-05-05 17:39 | 41.69317 | -4.14718 | 27886 ft | 472 kts | 191° |
| 2026-05-05 17:39 | 41.66069 | -4.15084 | 27250 ft | 466 kts | 191° |
| 2026-05-05 17:39 | 41.62845 | -4.15449 | 26605 ft | 462 kts | 191° |
| 2026-05-05 17:40 | 41.59653 | -4.15809 | 25950 ft | 458 kts | 190° |
| 2026-05-05 17:40 | 41.56490 | -4.16167 | 25310 ft | 454 kts | 190° |
| 2026-05-05 17:40 | 41.53347 | -4.16524 | 24671 ft | 451 kts | 189° |
| 2026-05-05 17:40 | 41.50222 | -4.16878 | 24197 ft | 452 kts | 189° |
| 2026-05-05 17:41 | 41.47079 | -4.17233 | 24005 ft | 454 kts | 190° |
| 2026-05-05 17:41 | 41.43916 | -4.17590 | 23990 ft | 456 kts | 190° |
| 2026-05-05 17:41 | 41.40751 | -4.17946 | 23992 ft | 456 kts | 190° |
| 2026-05-05 17:41 | 41.37631 | -4.18296 | 23992 ft | 456 kts | 190° |
| 2026-05-05 17:42 | 41.34476 | -4.18649 | 23914 ft | 448 kts | 190° |
| 2026-05-05 17:42 | 41.31447 | -4.18978 | 23264 ft | 426 kts | 189° |
| 2026-05-05 17:42 | 41.28520 | -4.19302 | 21878 ft | 422 kts | 189° |
| 2026-05-05 17:42 | 41.25595 | -4.19631 | 20564 ft | 421 kts | 189° |
| 2026-05-05 17:43 | 41.22615 | -4.19848 | 19956 ft | 434 kts | 186° |
| 2026-05-05 17:43 | 41.19587 | -4.20009 | 19691 ft | 433 kts | 186° |
| 2026-05-05 17:43 | 41.16587 | -4.20171 | 19444 ft | 430 kts | 186° |
| 2026-05-05 17:43 | 41.13637 | -4.20338 | 19204 ft | 428 kts | 186° |
| 2026-05-05 17:44 | 41.10668 | -4.20512 | 18960 ft | 426 kts | 186° |
| 2026-05-05 17:44 | 41.07708 | -4.20689 | 18724 ft | 427 kts | 185° |
| 2026-05-05 17:44 | 41.04745 | -4.20866 | 18472 ft | 423 kts | 185° |
| 2026-05-05 17:44 | 41.01807 | -4.21044 | 18231 ft | 421 kts | 185° |
| 2026-05-05 17:45 | 40.98884 | -4.21220 | 17950 ft | 419 kts | 185° |
| 2026-05-05 17:45 | 40.95973 | -4.21395 | 17678 ft | 418 kts | 185° |
| 2026-05-05 17:45 | 40.93079 | -4.21569 | 17406 ft | 416 kts | 185° |
| 2026-05-05 17:45 | 40.90187 | -4.21744 | 17129 ft | 414 kts | 185° |
| 2026-05-05 17:46 | 40.87313 | -4.21917 | 16874 ft | 412 kts | 185° |
| 2026-05-05 17:46 | 40.84454 | -4.22090 | 16623 ft | 410 kts | 185° |
| 2026-05-05 17:46 | 40.81609 | -4.22261 | 16335 ft | 409 kts | 185° |
| 2026-05-05 17:46 | 40.78766 | -4.22433 | 16073 ft | 408 kts | 185° |
| 2026-05-05 17:47 | 40.75971 | -4.22602 | 15823 ft | 406 kts | 186° |
| 2026-05-05 17:47 | 40.73116 | -4.22773 | 15564 ft | 405 kts | 185° |
| 2026-05-05 17:47 | 40.70341 | -4.22939 | 15305 ft | 404 kts | 185° |
| 2026-05-05 17:47 | 40.67537 | -4.23108 | 15050 ft | 402 kts | 186° |
| 2026-05-05 17:48 | 40.64735 | -4.23277 | 14815 ft | 400 kts | 185° |
| 2026-05-05 17:48 | 40.61957 | -4.23443 | 14564 ft | 399 kts | 185° |
| 2026-05-05 17:48 | 40.59191 | -4.23608 | 14318 ft | 397 kts | 186° |
| 2026-05-05 17:48 | 40.56433 | -4.23775 | 14078 ft | 396 kts | 185° |
| 2026-05-05 17:49 | 40.53678 | -4.23866 | 13837 ft | 395 kts | 179° |
| 2026-05-05 17:49 | 40.51029 | -4.23222 | 13724 ft | 381 kts | 164° |
| 2026-05-05 17:49 | 40.48596 | -4.22045 | 13597 ft | 364 kts | 161° |
| 2026-05-05 17:49 | 40.46325 | -4.20858 | 13480 ft | 348 kts | 161° |
| 2026-05-05 17:50 | 40.44121 | -4.19713 | 13367 ft | 333 kts | 161° |
| 2026-05-05 17:50 | 40.42010 | -4.18621 | 13232 ft | 319 kts | 161° |
| 2026-05-05 17:50 | 40.39978 | -4.17571 | 13037 ft | 309 kts | 162° |
| 2026-05-05 17:50 | 40.38014 | -4.16565 | 12869 ft | 297 kts | 161° |
| 2026-05-05 17:51 | 40.36124 | -4.15554 | 12628 ft | 290 kts | 157° |
| 2026-05-05 17:51 | 40.34509 | -4.14006 | 12462 ft | 290 kts | 132° |
| 2026-05-05 17:51 | 40.33784 | -4.12538 | 12310 ft | 290 kts | 114° |
| 2026-05-05 17:51 | 40.33084 | -4.10062 | 12069 ft | 289 kts | 108° |
| 2026-05-05 17:52 | 40.32478 | -4.07549 | 11885 ft | 288 kts | 107° |
| 2026-05-05 17:52 | 40.31873 | -4.05049 | 11686 ft | 288 kts | 108° |
| 2026-05-05 17:52 | 40.31259 | -4.02552 | 11487 ft | 287 kts | 108° |
| 2026-05-05 17:52 | 40.30642 | -4.00064 | 11292 ft | 287 kts | 108° |
| 2026-05-05 17:53 | 40.30023 | -3.97584 | 11093 ft | 286 kts | 108° |
| 2026-05-05 17:53 | 40.29403 | -3.95110 | 10899 ft | 285 kts | 108° |
| 2026-05-05 17:53 | 40.28784 | -3.92649 | 10703 ft | 284 kts | 108° |
| 2026-05-05 17:53 | 40.28166 | -3.90193 | 10516 ft | 284 kts | 108° |
| 2026-05-05 17:54 | 40.27547 | -3.87738 | 10319 ft | 283 kts | 109° |
| 2026-05-05 17:54 | 40.26930 | -3.85293 | 10127 ft | 282 kts | 109° |
| 2026-05-05 17:54 | 40.26321 | -3.82884 | 9933 ft | 280 kts | 109° |
| 2026-05-05 17:54 | 40.25707 | -3.80458 | 9724 ft | 280 kts | 109° |
| 2026-05-05 17:55 | 40.25094 | -3.78038 | 9533 ft | 281 kts | 109° |
| 2026-05-05 17:55 | 40.24476 | -3.75603 | 9321 ft | 280 kts | 109° |
| 2026-05-05 17:55 | 40.23865 | -3.73184 | 9173 ft | 279 kts | 108° |
| 2026-05-05 17:55 | 40.23265 | -3.70817 | 8987 ft | 277 kts | 109° |
| 2026-05-05 17:56 | 40.22645 | -3.68386 | 8799 ft | 278 kts | 109° |
| 2026-05-05 17:56 | 40.22033 | -3.65985 | 8607 ft | 279 kts | 109° |
| 2026-05-05 17:56 | 40.21425 | -3.63605 | 8422 ft | 278 kts | 108° |
| 2026-05-05 17:56 | 40.20816 | -3.61219 | 8222 ft | 276 kts | 108° |
| 2026-05-05 17:57 | 40.20209 | -3.58846 | 8042 ft | 274 kts | 108° |
| 2026-05-05 17:57 | 40.19604 | -3.56476 | 7848 ft | 274 kts | 108° |
| 2026-05-05 17:57 | 40.19008 | -3.54151 | 7633 ft | 267 kts | 108° |
| 2026-05-05 17:57 | 40.18426 | -3.51877 | 7387 ft | 261 kts | 108° |
| 2026-05-05 17:58 | 40.17850 | -3.49631 | 7141 ft | 260 kts | 108° |
| 2026-05-05 17:58 | 40.17329 | -3.47372 | 6907 ft | 260 kts | 98° |
| 2026-05-05 17:58 | 40.17592 | -3.45109 | 6746 ft | 253 kts | 59° |
| 2026-05-05 17:58 | 40.18790 | -3.43525 | 6640 ft | 242 kts | 21° |
| 2026-05-05 17:59 | 40.20388 | -3.42959 | 6525 ft | 238 kts | 7° |
| 2026-05-05 17:59 | 40.22000 | -3.42517 | 6406 ft | 236 kts | 10° |
| 2026-05-05 17:59 | 40.23600 | -3.41925 | 6271 ft | 240 kts | 14° |
| 2026-05-05 17:59 | 40.25175 | -3.41207 | 6112 ft | 236 kts | 16° |
| 2026-05-05 18:00 | 40.26644 | -3.40462 | 6043 ft | 221 kts | 18° |
| 2026-05-05 18:00 | 40.28015 | -3.39728 | 5990 ft | 205 kts | 17° |
| 2026-05-05 18:00 | 40.29283 | -3.39034 | 5908 ft | 190 kts | 17° |
| 2026-05-05 18:00 | 40.30466 | -3.38399 | 5814 ft | 175 kts | 15° |
| 2026-05-05 18:01 | 40.31579 | -3.38284 | 5805 ft | 152 kts | 342° |
| 2026-05-05 18:01 | 40.32563 | -3.38721 | 5659 ft | 146 kts | 328° |
| 2026-05-05 18:01 | 40.33393 | -3.39470 | 5421 ft | 144 kts | 317° |
| 2026-05-05 18:01 | 40.34201 | -3.40287 | 5196 ft | 153 kts | 319° |
| 2026-05-05 18:02 | 40.35059 | -3.41146 | 4979 ft | 159 kts | 319° |
| 2026-05-05 18:02 | 40.35931 | -3.42027 | 4758 ft | 158 kts | 319° |
| 2026-05-05 18:02 | 40.36800 | -3.42914 | 4546 ft | 159 kts | 316° |
| 2026-05-05 18:02 | 40.37677 | -3.43813 | 4321 ft | 160 kts | 317° |
| 2026-05-05 18:03 | 40.38552 | -3.44702 | 4110 ft | 158 kts | 318° |
| 2026-05-05 18:03 | 40.39411 | -3.45578 | 3899 ft | 156 kts | 319° |
| 2026-05-05 18:03 | 40.40267 | -3.46447 | 3687 ft | 151 kts | 318° |
| 2026-05-05 18:03 | 40.41041 | -3.47230 | 3498 ft | 136 kts | 318° |
| 2026-05-05 18:04 | 40.41777 | -3.47976 | 3327 ft | 126 kts | 318° |
| 2026-05-05 18:04 | 40.42464 | -3.48670 | 3132 ft | 125 kts | 317° |
| 2026-05-05 18:04 | 40.43165 | -3.49380 | 2968 ft | 128 kts | 315° |
| 2026-05-05 18:04 | 40.43868 | -3.50093 | 2796 ft | 130 kts | 316° |
| 2026-05-05 18:05 | 40.44573 | -3.50843 | 2634 ft | 130 kts | 315° |
| 2026-05-05 18:05 | 40.45306 | -3.51565 | 2463 ft | 134 kts | 314° |
| 2026-05-05 18:05 | 40.46029 | -3.52287 | 2271 ft | 127 kts | 312° |
| 2026-05-05 18:05 | 40.46729 | -3.52977 | 2073 ft | 125 kts | 312° |
| 2026-05-05 18:06 | 40.47408 | -3.53685 | 1992 ft | 122 kts | 318° |
| 2026-05-05 18:06 | 40.47798 | -3.54083 | 1990 ft | 84 kts | 324° |
| 2026-05-05 18:06 | 40.48095 | -3.54370 | 1990 ft | 1 kts | 323° |
| 2026-05-05 18:06 | 40.48252 | -3.54529 | 1991 ft | 47 kts | 322° |
| 2026-05-05 18:07 | 40.48494 | -3.54775 | 1989 ft | 41 kts | 322° |
| 2026-05-05 18:07 | 40.48709 | -3.54992 | 1991 ft | 37 kts | 322° |
| 2026-05-05 18:07 | 40.48904 | -3.55190 | 1991 ft | 34 kts | 322° |
| 2026-05-05 18:07 | 40.49080 | -3.55378 | 1991 ft | 31 kts | 317° |
| 2026-05-05 18:08 | 40.49199 | -3.55580 | 1991 ft | 21 kts | 299° |
| 2026-05-05 18:08 | 40.49255 | -3.55739 | 1989 ft | 14 kts | 293° |